sensor_id;sensor_type;location;lat;lon;timestamp;pressure;altitude;pressure_sealevel;temperature;humidity
53659;BME280;41524;35.624;139.698;2023-03-03T00:00:16;102382.00;;;7.20;31.40
53659;BME280;41524;35.624;139.698;2023-03-03T00:05:21;102385.00;;;6.68;32.42
53659;BME280;41524;35.624;139.698;2023-03-03T00:10:12;102387.00;;;7.00;30.32
53659;BME280;41524;35.624;139.698;2023-03-03T00:15:16;102389.00;;;6.60;31.20
53659;BME280;41524;35.624;139.698;2023-03-03T00:20:33;102388.00;;;7.04;30.98
53659;BME280;41524;35.624;139.698;2023-03-03T00:25:27;102385.00;;;7.35;28.65
53659;BME280;41524;35.624;139.698;2023-03-03T00:35:23;102394.00;;;8.91;26.22
53659;BME280;41524;35.624;139.698;2023-03-03T00:40:20;102389.00;;;8.44;28.10
53659;BME280;41524;35.624;139.698;2023-03-03T00:45:29;102394.00;;;8.78;27.68
53659;BME280;41524;35.624;139.698;2023-03-03T00:50:36;102393.00;;;9.43;27.14
53659;BME280;41524;35.624;139.698;2023-03-03T00:55:12;102395.00;;;8.33;26.94
53659;BME280;41524;35.624;139.698;2023-03-03T01:00:18;102395.00;;;8.95;28.62
53659;BME280;41524;35.624;139.698;2023-03-03T01:05:14;102391.00;;;8.34;28.55
53659;BME280;41524;35.624;139.698;2023-03-03T01:10:17;102381.00;;;8.55;27.22
53659;BME280;41524;35.624;139.698;2023-03-03T01:15:13;102369.00;;;9.47;24.45
53659;BME280;41524;35.624;139.698;2023-03-03T01:20:13;102368.00;;;7.31;27.89
53659;BME280;41524;35.624;139.698;2023-03-03T01:25:15;102363.00;;;8.01;27.36
53659;BME280;41524;35.624;139.698;2023-03-03T01:30:16;102361.00;;;10.64;24.67
53659;BME280;41524;35.624;139.698;2023-03-03T01:35:12;102360.00;;;9.35;24.99
53659;BME280;41524;35.624;139.698;2023-03-03T01:40:19;102353.00;;;10.87;24.65
53659;BME280;41524;35.624;139.698;2023-03-03T01:45:17;102347.00;;;10.42;24.43
53659;BME280;41524;35.624;139.698;2023-03-03T01:50:22;102346.00;;;9.71;23.99
53659;BME280;41524;35.624;139.698;2023-03-03T01:55:15;102340.00;;;9.66;24.37
53659;BME280;41524;35.624;139.698;2023-03-03T02:00:12;102333.00;;;11.19;23.33
53659;BME280;41524;35.624;139.698;2023-03-03T02:05:11;102334.00;;;9.90;24.56
53659;BME280;41524;35.624;139.698;2023-03-03T02:10:14;102322.00;;;9.68;24.38
53659;BME280;41524;35.624;139.698;2023-03-03T02:15:19;102315.00;;;10.57;23.96
53659;BME280;41524;35.624;139.698;2023-03-03T02:20:26;102313.00;;;10.56;22.56
53659;BME280;41524;35.624;139.698;2023-03-03T02:25:17;102303.00;;;10.97;23.35
53659;BME280;41524;35.624;139.698;2023-03-03T02:30:16;102295.00;;;12.06;21.93
53659;BME280;41524;35.624;139.698;2023-03-03T02:35:30;102280.00;;;11.68;21.55
53659;BME280;41524;35.624;139.698;2023-03-03T02:40:13;102279.00;;;8.92;22.52
53659;BME280;41524;35.624;139.698;2023-03-03T02:45:11;102266.00;;;9.51;22.56
53659;BME280;41524;35.624;139.698;2023-03-03T02:50:16;102254.00;;;10.64;21.92
53659;BME280;41524;35.624;139.698;2023-03-03T02:55:12;102237.00;;;8.55;23.84
53659;BME280;41524;35.624;139.698;2023-03-03T03:00:11;102216.00;;;11.83;21.53
53659;BME280;41524;35.624;139.698;2023-03-03T03:05:11;102203.00;;;12.16;21.97
53659;BME280;41524;35.624;139.698;2023-03-03T03:10:11;102196.00;;;11.88;21.72
53659;BME280;41524;35.624;139.698;2023-03-03T03:15:15;102188.00;;;10.62;22.61
53659;BME280;41524;35.624;139.698;2023-03-03T03:20:12;102176.00;;;10.33;23.29
53659;BME280;41524;35.624;139.698;2023-03-03T03:25:12;102162.00;;;10.55;22.84
53659;BME280;41524;35.624;139.698;2023-03-03T03:30:15;102144.00;;;11.31;22.86
53659;BME280;41524;35.624;139.698;2023-03-03T03:35:12;102146.00;;;11.94;22.25
53659;BME280;41524;35.624;139.698;2023-03-03T03:40:12;102130.00;;;11.58;21.99
53659;BME280;41524;35.624;139.698;2023-03-03T03:45:12;102121.00;;;12.69;21.96
53659;BME280;41524;35.624;139.698;2023-03-03T03:50:12;102116.00;;;11.98;22.23
53659;BME280;41524;35.624;139.698;2023-03-03T03:55:11;102107.00;;;12.21;22.03
53659;BME280;41524;35.624;139.698;2023-03-03T04:00:22;102100.00;;;12.76;22.36
53659;BME280;41524;35.624;139.698;2023-03-03T04:05:12;102094.00;;;12.83;21.83
53659;BME280;41524;35.624;139.698;2023-03-03T04:10:11;102092.00;;;12.16;22.84
53659;BME280;41524;35.624;139.698;2023-03-03T04:15:15;102077.00;;;12.01;23.45
53659;BME280;41524;35.624;139.698;2023-03-03T04:20:16;102078.00;;;11.33;24.61
53659;BME280;41524;35.624;139.698;2023-03-03T04:25:13;102077.00;;;10.13;25.16
53659;BME280;41524;35.624;139.698;2023-03-03T04:30:13;102075.00;;;10.31;25.43
53659;BME280;41524;35.624;139.698;2023-03-03T04:35:11;102079.00;;;10.51;25.55
53659;BME280;41524;35.624;139.698;2023-03-03T04:40:11;102073.00;;;9.34;27.35
53659;BME280;41524;35.624;139.698;2023-03-03T04:45:11;102072.00;;;11.27;25.40
53659;BME280;41524;35.624;139.698;2023-03-03T04:50:12;102075.00;;;10.61;25.84
53659;BME280;41524;35.624;139.698;2023-03-03T04:55:17;102074.00;;;9.95;26.27
53659;BME280;41524;35.624;139.698;2023-03-03T05:00:12;102082.00;;;10.56;25.90
53659;BME280;41524;35.624;139.698;2023-03-03T05:05:11;102087.00;;;11.07;25.60
53659;BME280;41524;35.624;139.698;2023-03-03T05:10:15;102086.00;;;11.46;24.81
53659;BME280;41524;35.624;139.698;2023-03-03T05:15:17;102089.00;;;11.27;24.35
53659;BME280;41524;35.624;139.698;2023-03-03T05:20:12;102088.00;;;10.67;24.68
53659;BME280;41524;35.624;139.698;2023-03-03T05:25:11;102088.00;;;10.91;24.96
53659;BME280;41524;35.624;139.698;2023-03-03T05:30:12;102087.00;;;10.57;24.67
53659;BME280;41524;35.624;139.698;2023-03-03T05:35:20;102094.00;;;10.64;24.66
53659;BME280;41524;35.624;139.698;2023-03-03T05:40:13;102085.00;;;10.55;24.62
53659;BME280;41524;35.624;139.698;2023-03-03T05:45:12;102089.00;;;11.43;24.23
53659;BME280;41524;35.624;139.698;2023-03-03T05:50:12;102088.00;;;10.40;24.13
53659;BME280;41524;35.624;139.698;2023-03-03T05:55:13;102093.00;;;9.84;25.23
53659;BME280;41524;35.624;139.698;2023-03-03T06:00:13;102088.00;;;10.48;25.26
53659;BME280;41524;35.624;139.698;2023-03-03T06:05:11;102086.00;;;10.85;25.64
53659;BME280;41524;35.624;139.698;2023-03-03T06:10:12;102081.00;;;10.20;25.46
53659;BME280;41524;35.624;139.698;2023-03-03T06:15:16;102076.00;;;11.57;24.45
53659;BME280;41524;35.624;139.698;2023-03-03T06:20:11;102092.00;;;8.55;27.22
53659;BME280;41524;35.624;139.698;2023-03-03T06:25:11;102099.00;;;10.64;25.17
53659;BME280;41524;35.624;139.698;2023-03-03T06:30:13;102094.00;;;9.43;26.34
53659;BME280;41524;35.624;139.698;2023-03-03T06:35:12;102097.00;;;10.57;25.67
53659;BME280;41524;35.624;139.698;2023-03-03T06:40:12;102097.00;;;10.46;25.60
53659;BME280;41524;35.624;139.698;2023-03-03T06:45:11;102086.00;;;10.53;26.03
53659;BME280;41524;35.624;139.698;2023-03-03T06:50:12;102081.00;;;12.32;25.07
53659;BME280;41524;35.624;139.698;2023-03-03T06:55:20;102090.00;;;9.30;27.69
53659;BME280;41524;35.624;139.698;2023-03-03T07:00:17;102106.00;;;9.21;28.68
53659;BME280;41524;35.624;139.698;2023-03-03T07:05:17;102114.00;;;9.52;28.84
53659;BME280;41524;35.624;139.698;2023-03-03T07:10:24;102118.00;;;9.80;29.72
53659;BME280;41524;35.624;139.698;2023-03-03T07:15:24;102115.00;;;10.46;28.55
53659;BME280;41524;35.624;139.698;2023-03-03T07:20:18;102113.00;;;9.68;29.91
53659;BME280;41524;35.624;139.698;2023-03-03T07:25:20;102122.00;;;9.30;30.68
53659;BME280;41524;35.624;139.698;2023-03-03T07:30:24;102120.00;;;9.98;31.10
53659;BME280;41524;35.624;139.698;2023-03-03T07:35:35;102124.00;;;9.10;33.05
53659;BME280;41524;35.624;139.698;2023-03-03T07:40:30;102129.00;;;8.43;34.90
53659;BME280;41524;35.624;139.698;2023-03-03T07:45:26;102132.00;;;8.30;35.20
53659;BME280;41524;35.624;139.698;2023-03-03T07:50:19;102135.00;;;9.25;33.98
53659;BME280;41524;35.624;139.698;2023-03-03T07:55:26;102135.00;;;9.50;34.50
53659;BME280;41524;35.624;139.698;2023-03-03T08:01:38;102147.00;;;9.74;33.40
53659;BME280;41524;35.624;139.698;2023-03-03T08:05:31;102159.00;;;9.07;34.91
53659;BME280;41524;35.624;139.698;2023-03-03T08:10:34;102165.00;;;9.03;35.65
53659;BME280;41524;35.624;139.698;2023-03-03T08:15:21;102180.00;;;8.98;36.31
53659;BME280;41524;35.624;139.698;2023-03-03T08:20:45;102179.00;;;8.14;37.92
53659;BME280;41524;35.624;139.698;2023-03-03T08:25:12;102180.00;;;8.24;38.15
53659;BME280;41524;35.624;139.698;2023-03-03T08:30:18;102183.00;;;8.25;39.52
53659;BME280;41524;35.624;139.698;2023-03-03T08:35:16;102198.00;;;9.46;37.02
53659;BME280;41524;35.624;139.698;2023-03-03T08:40:12;102214.00;;;7.99;40.08
53659;BME280;41524;35.624;139.698;2023-03-03T08:45:15;102218.00;;;7.63;40.16
53659;BME280;41524;35.624;139.698;2023-03-03T08:50:17;102232.00;;;7.50;41.51
53659;BME280;41524;35.624;139.698;2023-03-03T08:55:15;102225.00;;;8.56;40.40
53659;BME280;41524;35.624;139.698;2023-03-03T09:00:22;102236.00;;;7.46;41.74
53659;BME280;41524;35.624;139.698;2023-03-03T09:05:19;102237.00;;;7.91;40.46
53659;BME280;41524;35.624;139.698;2023-03-03T09:10:23;102241.00;;;7.57;41.81
53659;BME280;41524;35.624;139.698;2023-03-03T09:15:19;102246.00;;;8.59;40.63
53659;BME280;41524;35.624;139.698;2023-03-03T09:20:26;102246.00;;;8.28;40.15
53659;BME280;41524;35.624;139.698;2023-03-03T09:25:21;102247.00;;;8.01;40.92
53659;BME280;41524;35.624;139.698;2023-03-03T09:30:34;102250.00;;;7.38;42.65
53659;BME280;41524;35.624;139.698;2023-03-03T09:35:35;102248.00;;;8.24;41.98
53659;BME280;41524;35.624;139.698;2023-03-03T09:40:38;102255.00;;;7.90;42.35
53659;BME280;41524;35.624;139.698;2023-03-03T09:46:28;102264.00;;;7.38;43.71
53659;BME280;41524;35.624;139.698;2023-03-03T09:50:27;102263.00;;;7.31;44.30
53659;BME280;41524;35.624;139.698;2023-03-03T09:55:29;102274.00;;;7.21;44.38
53659;BME280;41524;35.624;139.698;2023-03-03T10:00:28;102276.00;;;7.67;44.30
53659;BME280;41524;35.624;139.698;2023-03-03T10:05:26;102274.00;;;7.58;44.18
53659;BME280;41524;35.624;139.698;2023-03-03T10:11:16;102273.00;;;7.32;44.88
53659;BME280;41524;35.624;139.698;2023-03-03T10:15:22;102276.00;;;8.20;43.30
53659;BME280;41524;35.624;139.698;2023-03-03T10:20:22;102278.00;;;7.98;43.50
53659;BME280;41524;35.624;139.698;2023-03-03T10:25:20;102280.00;;;7.45;43.92
53659;BME280;41524;35.624;139.698;2023-03-03T10:30:16;102286.00;;;8.08;42.69
53659;BME280;41524;35.624;139.698;2023-03-03T10:35:29;102283.00;;;8.16;42.75
53659;BME280;41524;35.624;139.698;2023-03-03T10:40:21;102295.00;;;7.55;44.20
53659;BME280;41524;35.624;139.698;2023-03-03T10:45:32;102298.00;;;8.03;42.63
53659;BME280;41524;35.624;139.698;2023-03-03T10:50:20;102312.00;;;8.43;43.31
53659;BME280;41524;35.624;139.698;2023-03-03T10:55:29;102319.00;;;7.26;43.23
53659;BME280;41524;35.624;139.698;2023-03-03T11:00:22;102317.00;;;7.89;42.97
53659;BME280;41524;35.624;139.698;2023-03-03T11:05:22;102318.00;;;7.51;42.82
53659;BME280;41524;35.624;139.698;2023-03-03T11:10:23;102314.00;;;7.28;43.34
53659;BME280;41524;35.624;139.698;2023-03-03T11:15:23;102320.00;;;7.53;43.17
53659;BME280;41524;35.624;139.698;2023-03-03T11:20:25;102317.00;;;8.04;43.04
53659;BME280;41524;35.624;139.698;2023-03-03T11:25:23;102325.00;;;7.97;43.35
53659;BME280;41524;35.624;139.698;2023-03-03T11:30:23;102322.00;;;7.36;44.60
53659;BME280;41524;35.624;139.698;2023-03-03T11:35:21;102320.00;;;7.22;44.84
53659;BME280;41524;35.624;139.698;2023-03-03T11:40:17;102323.00;;;7.62;44.16
53659;BME280;41524;35.624;139.698;2023-03-03T11:45:19;102313.00;;;7.89;43.83
53659;BME280;41524;35.624;139.698;2023-03-03T11:50:15;102312.00;;;7.36;45.34
53659;BME280;41524;35.624;139.698;2023-03-03T11:55:19;102315.00;;;7.12;45.93
53659;BME280;41524;35.624;139.698;2023-03-03T12:00:22;102310.00;;;8.41;44.05
53659;BME280;41524;35.624;139.698;2023-03-03T12:05:16;102315.00;;;8.14;43.81
53659;BME280;41524;35.624;139.698;2023-03-03T12:10:26;102315.00;;;8.53;43.37
53659;BME280;41524;35.624;139.698;2023-03-03T12:15:26;102315.00;;;8.05;43.85
53659;BME280;41524;35.624;139.698;2023-03-03T12:20:17;102317.00;;;7.81;43.84
53659;BME280;41524;35.624;139.698;2023-03-03T12:25:31;102323.00;;;6.60;45.69
53659;BME280;41524;35.624;139.698;2023-03-03T12:30:25;102321.00;;;7.64;43.79
53659;BME280;41524;35.624;139.698;2023-03-03T12:35:19;102322.00;;;7.19;44.43
53659;BME280;41524;35.624;139.698;2023-03-03T12:40:17;102320.00;;;7.73;43.76
53659;BME280;41524;35.624;139.698;2023-03-03T12:45:35;102322.00;;;6.89;45.43
53659;BME280;41524;35.624;139.698;2023-03-03T12:50:23;102330.00;;;7.71;44.76
53659;BME280;41524;35.624;139.698;2023-03-03T12:55:29;102339.00;;;7.58;44.98
53659;BME280;41524;35.624;139.698;2023-03-03T13:00:26;102341.00;;;8.04;44.38
53659;BME280;41524;35.624;139.698;2023-03-03T13:05:22;102345.00;;;7.69;45.20
53659;BME280;41524;35.624;139.698;2023-03-03T13:10:19;102354.00;;;8.04;44.85
53659;BME280;41524;35.624;139.698;2023-03-03T13:15:17;102359.00;;;7.63;45.56
53659;BME280;41524;35.624;139.698;2023-03-03T13:20:24;102349.00;;;7.89;45.30
53659;BME280;41524;35.624;139.698;2023-03-03T13:25:30;102341.00;;;7.75;45.53
53659;BME280;41524;35.624;139.698;2023-03-03T13:30:18;102342.00;;;7.49;45.92
53659;BME280;41524;35.624;139.698;2023-03-03T13:35:23;102341.00;;;8.01;45.40
53659;BME280;41524;35.624;139.698;2023-03-03T13:40:18;102346.00;;;7.05;46.79
53659;BME280;41524;35.624;139.698;2023-03-03T13:45:22;102344.00;;;7.76;45.55
53659;BME280;41524;35.624;139.698;2023-03-03T13:50:22;102342.00;;;8.42;44.76
53659;BME280;41524;35.624;139.698;2023-03-03T13:55:23;102343.00;;;8.19;45.44
53659;BME280;41524;35.624;139.698;2023-03-03T14:00:35;102346.00;;;7.35;47.34
53659;BME280;41524;35.624;139.698;2023-03-03T14:05:28;102337.00;;;7.99;45.95
53659;BME280;41524;35.624;139.698;2023-03-03T14:10:22;102342.00;;;8.47;44.62
53659;BME280;41524;35.624;139.698;2023-03-03T14:15:22;102348.00;;;7.68;45.98
53659;BME280;41524;35.624;139.698;2023-03-03T14:20:25;102347.00;;;8.09;44.77
53659;BME280;41524;35.624;139.698;2023-03-03T14:25:12;102346.00;;;7.80;45.54
53659;BME280;41524;35.624;139.698;2023-03-03T14:30:32;102337.00;;;8.28;45.83
53659;BME280;41524;35.624;139.698;2023-03-03T14:35:29;102336.00;;;7.68;46.85
53659;BME280;41524;35.624;139.698;2023-03-03T14:40:21;102333.00;;;8.45;45.21
53659;BME280;41524;35.624;139.698;2023-03-03T14:45:35;102326.00;;;7.99;45.61
53659;BME280;41524;35.624;139.698;2023-03-03T14:50:31;102330.00;;;8.16;45.58
53659;BME280;41524;35.624;139.698;2023-03-03T14:55:32;102323.00;;;8.22;45.50
53659;BME280;41524;35.624;139.698;2023-03-03T15:00:29;102324.00;;;7.76;46.19
53659;BME280;41524;35.624;139.698;2023-03-03T15:05:23;102326.00;;;8.17;45.62
53659;BME280;41524;35.624;139.698;2023-03-03T15:10:35;102320.00;;;8.28;45.46
53659;BME280;41524;35.624;139.698;2023-03-03T15:15:19;102328.00;;;8.08;46.07
53659;BME280;41524;35.624;139.698;2023-03-03T15:20:23;102332.00;;;7.83;46.53
53659;BME280;41524;35.624;139.698;2023-03-03T15:25:18;102333.00;;;7.93;45.97
53659;BME280;41524;35.624;139.698;2023-03-03T15:30:24;102335.00;;;8.64;45.25
53659;BME280;41524;35.624;139.698;2023-03-03T15:35:25;102348.00;;;8.19;46.36
53659;BME280;41524;35.624;139.698;2023-03-03T15:40:25;102350.00;;;7.44;47.23
53659;BME280;41524;35.624;139.698;2023-03-03T15:45:23;102348.00;;;8.45;45.39
53659;BME280;41524;35.624;139.698;2023-03-03T15:50:32;102346.00;;;7.05;47.15
53659;BME280;41524;35.624;139.698;2023-03-03T15:55:24;102346.00;;;6.60;48.16
53659;BME280;41524;35.624;139.698;2023-03-03T16:00:34;102347.00;;;6.83;47.62
53659;BME280;41524;35.624;139.698;2023-03-03T16:05:17;102349.00;;;5.51;48.93
53659;BME280;41524;35.624;139.698;2023-03-03T16:10:21;102340.00;;;5.98;48.05
53659;BME280;41524;35.624;139.698;2023-03-03T16:15:22;102339.00;;;6.51;47.12
53659;BME280;41524;35.624;139.698;2023-03-03T16:20:21;102341.00;;;6.94;45.92
53659;BME280;41524;35.624;139.698;2023-03-03T16:25:25;102341.00;;;6.24;46.93
53659;BME280;41524;35.624;139.698;2023-03-03T16:30:24;102345.00;;;6.13;46.50
53659;BME280;41524;35.624;139.698;2023-03-03T16:35:21;102345.00;;;5.91;46.67
53659;BME280;41524;35.624;139.698;2023-03-03T16:40:21;102337.00;;;5.67;46.56
53659;BME280;41524;35.624;139.698;2023-03-03T16:45:22;102333.00;;;5.65;46.51
53659;BME280;41524;35.624;139.698;2023-03-03T16:50:37;102319.00;;;4.94;48.01
53659;BME280;41524;35.624;139.698;2023-03-03T16:55:16;102319.00;;;5.55;47.26
53659;BME280;41524;35.624;139.698;2023-03-03T17:00:19;102311.00;;;5.30;47.25
53659;BME280;41524;35.624;139.698;2023-03-03T17:05:28;102305.00;;;5.26;47.65
53659;BME280;41524;35.624;139.698;2023-03-03T17:10:23;102302.00;;;4.96;48.38
53659;BME280;41524;35.624;139.698;2023-03-03T17:15:21;102297.00;;;4.99;48.29
53659;BME280;41524;35.624;139.698;2023-03-03T17:20:24;102301.00;;;5.23;48.00
53659;BME280;41524;35.624;139.698;2023-03-03T17:25:15;102299.00;;;5.37;47.47
53659;BME280;41524;35.624;139.698;2023-03-03T17:30:17;102290.00;;;5.56;46.81
53659;BME280;41524;35.624;139.698;2023-03-03T17:35:25;102295.00;;;4.66;47.90
53659;BME280;41524;35.624;139.698;2023-03-03T17:40:20;102296.00;;;4.71;47.33
53659;BME280;41524;35.624;139.698;2023-03-03T17:45:13;102299.00;;;4.93;46.63
53659;BME280;41524;35.624;139.698;2023-03-03T17:50:27;102299.00;;;4.96;46.22
53659;BME280;41524;35.624;139.698;2023-03-03T17:55:28;102310.00;;;4.06;46.73
53659;BME280;41524;35.624;139.698;2023-03-03T18:00:52;102310.00;;;4.69;44.78
53659;BME280;41524;35.624;139.698;2023-03-03T18:05:38;102306.00;;;4.88;43.30
53659;BME280;41524;35.624;139.698;2023-03-03T18:10:37;102309.00;;;5.29;41.12
53659;BME280;41524;35.624;139.698;2023-03-03T18:15:36;102312.00;;;4.70;40.57
53659;BME280;41524;35.624;139.698;2023-03-03T18:20:24;102305.00;;;4.90;40.13
53659;BME280;41524;35.624;139.698;2023-03-03T18:25:13;102305.00;;;4.50;40.00
53659;BME280;41524;35.624;139.698;2023-03-03T18:30:24;102298.00;;;4.56;40.16
53659;BME280;41524;35.624;139.698;2023-03-03T18:35:25;102301.00;;;5.10;39.37
53659;BME280;41524;35.624;139.698;2023-03-03T18:40:51;102305.00;;;4.92;39.21
53659;BME280;41524;35.624;139.698;2023-03-03T18:45:49;102312.00;;;4.03;40.45
53659;BME280;41524;35.624;139.698;2023-03-03T18:50:23;102313.00;;;5.14;39.14
53659;BME280;41524;35.624;139.698;2023-03-03T19:00:26;102324.00;;;5.72;38.67
53659;BME280;41524;35.624;139.698;2023-03-03T19:05:20;102329.00;;;4.82;39.75
53659;BME280;41524;35.624;139.698;2023-03-03T19:10:43;102329.00;;;5.42;38.81
53659;BME280;41524;35.624;139.698;2023-03-03T19:15:44;102335.00;;;5.28;39.13
53659;BME280;41524;35.624;139.698;2023-03-03T19:20:13;102335.00;;;5.15;39.13
53659;BME280;41524;35.624;139.698;2023-03-03T19:25:19;102334.00;;;5.08;39.07
53659;BME280;41524;35.624;139.698;2023-03-03T19:30:20;102337.00;;;4.72;39.43
53659;BME280;41524;35.624;139.698;2023-03-03T19:35:22;102341.00;;;4.86;38.61
53659;BME280;41524;35.624;139.698;2023-03-03T19:40:18;102345.00;;;4.99;38.12
53659;BME280;41524;35.624;139.698;2023-03-03T19:45:23;102347.00;;;4.59;38.71
53659;BME280;41524;35.624;139.698;2023-03-03T19:50:50;102342.00;;;4.82;38.39
53659;BME280;41524;35.624;139.698;2023-03-03T19:55:23;102346.00;;;4.32;38.86
53659;BME280;41524;35.624;139.698;2023-03-03T20:00:24;102352.00;;;4.54;38.52
53659;BME280;41524;35.624;139.698;2023-03-03T20:05:20;102350.00;;;4.60;38.60
53659;BME280;41524;35.624;139.698;2023-03-03T20:10:26;102350.00;;;4.57;38.70
53659;BME280;41524;35.624;139.698;2023-03-03T20:15:13;102349.00;;;5.02;37.92
53659;BME280;41524;35.624;139.698;2023-03-03T20:20:31;102351.00;;;5.09;37.93
53659;BME280;41524;35.624;139.698;2023-03-03T20:25:20;102349.00;;;4.79;37.93
53659;BME280;41524;35.624;139.698;2023-03-03T20:30:21;102349.00;;;5.14;37.50
53659;BME280;41524;35.624;139.698;2023-03-03T20:35:21;102352.00;;;4.40;38.60
53659;BME280;41524;35.624;139.698;2023-03-03T20:40:17;102355.00;;;4.60;38.35
53659;BME280;41524;35.624;139.698;2023-03-03T20:45:23;102360.00;;;5.24;37.50
53659;BME280;41524;35.624;139.698;2023-03-03T20:50:18;102361.00;;;4.59;38.10
53659;BME280;41524;35.624;139.698;2023-03-03T20:55:16;102368.00;;;4.11;39.30
53659;BME280;41524;35.624;139.698;2023-03-03T21:00:28;102369.00;;;4.01;39.63
53659;BME280;41524;35.624;139.698;2023-03-03T21:05:15;102366.00;;;4.65;38.79
53659;BME280;41524;35.624;139.698;2023-03-03T21:10:18;102375.00;;;4.53;38.94
53659;BME280;41524;35.624;139.698;2023-03-03T21:15:24;102379.00;;;4.05;39.44
53659;BME280;41524;35.624;139.698;2023-03-03T21:20:23;102387.00;;;4.67;39.23
53659;BME280;41524;35.624;139.698;2023-03-03T21:25:26;102396.00;;;4.28;39.23
53659;BME280;41524;35.624;139.698;2023-03-03T21:30:16;102401.00;;;3.78;40.17
53659;BME280;41524;35.624;139.698;2023-03-03T21:35:13;102405.00;;;4.58;39.43
53659;BME280;41524;35.624;139.698;2023-03-03T21:40:17;102409.00;;;4.44;39.05
53659;BME280;41524;35.624;139.698;2023-03-03T21:45:14;102410.00;;;3.76;39.99
53659;BME280;41524;35.624;139.698;2023-03-03T21:50:11;102413.00;;;4.22;39.08
53659;BME280;41524;35.624;139.698;2023-03-03T21:55:11;102414.00;;;4.59;38.35
53659;BME280;41524;35.624;139.698;2023-03-03T22:00:16;102421.00;;;4.98;38.03
53659;BME280;41524;35.624;139.698;2023-03-03T22:05:15;102424.00;;;5.05;37.92
53659;BME280;41524;35.624;139.698;2023-03-03T22:10:17;102427.00;;;5.33;37.68
53659;BME280;41524;35.624;139.698;2023-03-03T22:15:13;102430.00;;;5.58;37.56
53659;BME280;41524;35.624;139.698;2023-03-03T22:20:12;102436.00;;;5.35;37.34
53659;BME280;41524;35.624;139.698;2023-03-03T22:25:25;102437.00;;;6.39;36.21
53659;BME280;41524;35.624;139.698;2023-03-03T22:30:13;102434.00;;;6.79;35.67
53659;BME280;41524;35.624;139.698;2023-03-03T22:35:11;102434.00;;;5.70;36.82
53659;BME280;41524;35.624;139.698;2023-03-03T22:40:12;102439.00;;;6.39;36.74
53659;BME280;41524;35.624;139.698;2023-03-03T22:45:12;102438.00;;;7.63;34.18
53659;BME280;41524;35.624;139.698;2023-03-03T22:50:11;102440.00;;;6.99;34.40
53659;BME280;41524;35.624;139.698;2023-03-03T22:55:21;102442.00;;;8.91;33.12
53659;BME280;41524;35.624;139.698;2023-03-03T23:00:12;102437.00;;;7.91;33.77
53659;BME280;41524;35.624;139.698;2023-03-03T23:05:16;102435.00;;;8.63;32.49
53659;BME280;41524;35.624;139.698;2023-03-03T23:10:11;102431.00;;;8.48;32.43
53659;BME280;41524;35.624;139.698;2023-03-03T23:15:12;102424.00;;;8.47;33.49
53659;BME280;41524;35.624;139.698;2023-03-03T23:20:18;102421.00;;;9.46;32.11
53659;BME280;41524;35.624;139.698;2023-03-03T23:25:16;102419.00;;;7.45;33.79
53659;BME280;41524;35.624;139.698;2023-03-03T23:30:15;102419.00;;;10.84;30.46
53659;BME280;41524;35.624;139.698;2023-03-03T23:35:11;102410.00;;;10.74;29.92
53659;BME280;41524;35.624;139.698;2023-03-03T23:40:12;102411.00;;;10.48;30.15
53659;BME280;41524;35.624;139.698;2023-03-03T23:45:12;102415.00;;;10.45;30.01
53659;BME280;41524;35.624;139.698;2023-03-03T23:50:16;102409.00;;;11.47;29.92
53659;BME280;41524;35.624;139.698;2023-03-03T23:55:16;102405.00;;;11.27;29.27
